Weed, California
Current Conditions -  °F | °C
As of 6:56 AM on Wednesday 26 Nov 2014 (Local Time) from KMHS Reporting Station
Clear Clear  
Wind Chill: 34°   Ceiling: Unl
Heat Index: 34°   Visibility: 9mi
Dew Point: 31°   Wind: 0mph
Humidity: 89%   Direction: NA
Pressure: 30.35"   Gusts: NA
Location:  41.42°N, 122.39°W
Report Text: KMHS 261456Z AUTO 00000KT 9SM CLR 01/M01 A3035 RMK AO2 SLP310 I1000 I3000 T00111006 55005
Loading
Personal Weather Stations






























Interactive Weather Map New forecast layout! Learn more

10-Day Weather Forecast

Advertisements
Track Severe Weather on mobile